Time;durP1;ratioP1;P1;durP2;ratioP2;P2;SDS_P1;SDS_P2;PMS_P1;PMS_P2;Temp;Humidity;BMP_temperature;BMP_pressure;BME280_temperature;BME280_humidity;BME280_pressure;Samples;Min_cycle;Max_cycle;Signal;HPM_P1;HPM_P2
2022/11/11 05:39:55;;;;;;;42.85;23.42;;;;;;;6.19;100.00;101227.88;1784014;79;21192;-37
2022/11/11 05:42:41;;;;;;;;;;;;;;;6.21;100.00;101233.14;1740137;81;20957;-37
2022/11/11 05:45:26;;;;;;;43.45;21.87;;;;;;;6.19;100.00;101225.27;1742836;81;20429;-39
2022/11/11 05:48:10;;;;;;;43.00;22.98;;;;;;;6.19;100.00;101225.69;1748277;80;21068;-45
2022/11/11 05:50:58;;;;;;;45.78;24.02;;;;;;;6.19;100.00;101231.77;1731097;80;21142;-46
2022/11/11 05:53:43;;;;;;;42.17;23.77;;;;;;;6.20;100.00;101232.23;1737554;80;21531;-47
2022/11/11 05:56:27;;;;;;;49.40;24.02;;;;;;;6.23;100.00;101238.84;1733004;80;21438;-45
2022/11/11 05:59:12;;;;;;;42.43;24.72;;;;;;;6.26;100.00;101243.23;1759726;79;21072;-46
2022/11/11 06:01:57;;;;;;;46.20;21.73;;;;;;;6.29;100.00;101245.95;1747676;80;21446;-45
2022/11/11 06:04:42;;;;;;;33.58;19.57;;;;;;;6.31;100.00;101244.28;1750039;80;21083;-47
2022/11/11 06:07:27;;;;;;;40.75;22.25;;;;;;;6.32;100.00;101249.94;1747253;80;21004;-47
2022/11/11 06:10:30;;;;;;;46.58;23.35;;;;;;;6.33;100.00;101253.03;1743439;80;21937;-38
2022/11/11 06:13:15;;;;;;;39.60;22.22;;;;;;;6.36;100.00;101253.98;1736423;80;21060;-39
2022/11/11 06:16:02;;;;;;;39.45;22.10;;;;;;;6.40;100.00;101249.78;1743421;80;21068;-38
2022/11/11 06:18:49;;;;;;;43.68;23.45;;;;;;;6.46;100.00;101251.70;1751769;80;21048;-39
2022/11/11 06:21:57;;;;;;;37.38;20.95;;;;;;;6.50;100.00;101249.25;1741289;79;21063;-39
2022/11/11 06:24:23;;;;;;;43.20;21.80;;;;;;;6.54;100.00;101254.98;1739958;80;21068;-46
2022/11/11 06:27:08;;;;;;;46.20;22.20;;;;;;;6.57;100.00;101256.41;1739050;80;21176;-46
2022/11/11 06:29:53;;;;;;;43.38;24.55;;;;;;;6.62;100.00;101253.95;1737945;80;21629;-38
2022/11/11 06:32:39;;;;;;;34.92;20.35;;;;;;;6.66;100.00;101257.09;1732439;80;21035;-48
2022/11/11 06:35:27;;;;;;;47.43;24.47;;;;;;;6.72;100.00;101261.17;1730665;80;21200;-45
2022/11/11 06:38:37;;;;;;;41.53;23.62;;;;;;;6.76;100.00;101263.05;1735951;79;21192;-46
2022/11/11 06:42:02;;;;;;;43.65;23.73;;;;;;;6.81;100.00;101269.27;1735849;80;21530;-36
2022/11/11 06:45:36;;;;;;;47.43;25.17;;;;;;;6.87;100.00;101262.08;1734426;80;21044;-38
2022/11/11 06:49:29;;;;;;;41.23;23.50;;;;;;;6.91;100.00;101258.32;1735405;79;21091;-37
2022/11/11 06:53:28;;;;;;;34.70;20.70;;;;;;;7.00;100.00;101266.80;1730837;80;20976;-45
2022/11/11 07:00:45;;;;;;;44.38;22.75;;;;;;;7.12;100.00;101261.95;1727905;80;21123;-38
2022/11/11 07:03:36;;;;;;;40.67;23.52;;;;;;;7.18;100.00;101266.04;1732838;80;21036;-38
2022/11/11 07:06:22;;;;;;;40.28;23.87;;;;;;;7.28;100.00;101271.10;1733934;80;21066;-38
2022/11/11 07:09:08;;;;;;;37.65;22.02;;;;;;;7.37;100.00;101276.58;1736989;80;21067;-46
2022/11/11 07:11:53;;;;;;;38.05;21.97;;;;;;;7.42;100.00;101278.91;1738875;80;20981;-40
2022/11/11 07:14:38;;;;;;;34.63;21.90;;;;;;;7.49;100.00;101286.89;1739036;80;21044;-50
2022/11/11 07:17:23;;;;;;;33.25;19.40;;;;;;;7.51;100.00;101286.08;1731474;80;21555;-37
2022/11/11 07:20:10;;;;;;;46.63;24.43;;;;;;;7.51;100.00;101290.41;1732921;79;21005;-38
2022/11/11 07:23:52;;;;;;;32.15;18.35;;;;;;;7.49;100.00;101291.67;1737594;80;21055;-38
2022/11/11 07:27:40;;;;;;;28.60;14.47;;;;;;;7.51;100.00;101291.28;1738069;80;21021;-38
2022/11/11 07:30:54;;;;;;;27.17;15.98;;;;;;;7.56;100.00;101292.72;1730837;80;21073;-38
2022/11/11 07:33:47;;;;;;;23.62;13.03;;;;;;;7.58;100.00;101289.31;1737678;80;21161;-37
2022/11/11 07:36:34;;;;;;;25.17;14.78;;;;;;;7.62;100.00;101288.98;1737662;80;21083;-38
2022/11/11 07:39:19;;;;;;;24.43;15.05;;;;;;;7.63;100.00;101292.92;1737575;80;21072;-38
2022/11/11 07:42:05;;;;;;;23.62;14.98;;;;;;;7.64;100.00;101292.08;1742243;81;21088;-37
2022/11/11 07:44:50;;;;;;;23.40;14.43;;;;;;;7.67;100.00;101294.78;1731113;81;21076;-37
2022/11/11 07:47:38;;;;;;;29.52;15.60;;;;;;;7.67;100.00;101293.91;1741000;80;21140;-40
2022/11/11 07:50:23;;;;;;;26.15;14.78;;;;;;;7.71;100.00;101302.24;1733126;80;21067;-37
2022/11/11 07:53:08;;;;;;;26.20;14.07;;;;;;;7.74;100.00;101302.34;1711488;81;21730;-38
2022/11/11 07:55:53;;;;;;;26.93;15.13;;;;;;;7.78;100.00;101309.84;1747793;80;21013;-38
2022/11/11 07:58:39;;;;;;;25.95;14.33;;;;;;;7.81;100.00;101305.57;1744805;80;21028;-49
2022/11/11 08:01:24;;;;;;;28.52;16.30;;;;;;;7.83;100.00;101308.23;1743858;80;21020;-39
2022/11/11 08:04:08;;;;;;;27.52;16.12;;;;;;;7.87;100.00;101310.06;1734548;80;21072;-37
2022/11/11 08:06:54;;;;;;;31.15;16.25;;;;;;;7.91;100.00;101308.89;1735952;80;21047;-44
2022/11/11 08:09:38;;;;;;;32.23;15.72;;;;;;;7.96;100.00;101309.90;1736915;80;21519;-37
2022/11/11 08:15:52;;;;;;;25.27;14.43;;;;;;;8.09;100.00;101310.22;1705207;80;21428;-37
2022/11/11 08:18:57;;;;;;;26.00;15.08;;;;;;;8.16;100.00;101317.35;1697640;80;21651;-47
2022/11/11 08:22:56;;;;;;;28.47;16.65;;;;;;;8.19;100.00;101318.75;1735459;81;21021;-38
2022/11/11 08:25:45;;;;;;;25.40;14.05;;;;;;;8.24;100.00;101319.33;1738382;80;21114;-38
2022/11/11 08:28:33;;;;;;;23.35;14.07;;;;;;;8.30;100.00;101321.21;1738868;80;21048;-37
2022/11/11 08:31:18;;;;;;;24.07;14.65;;;;;;;8.34;100.00;101320.84;1736491;80;21846;-37
2022/11/11 08:34:09;;;;;;;23.45;14.40;;;;;;;8.35;100.00;101322.61;1743643;80;21378;-38
2022/11/11 08:36:55;;;;;;;24.40;14.50;;;;;;;8.37;100.00;101328.80;1735007;80;21009;-37
2022/11/11 08:39:39;;;;;;;25.80;14.78;;;;;;;8.36;100.00;101330.53;1737004;80;21117;-46
2022/11/11 08:42:24;;;;;;;24.77;13.18;;;;;;;8.35;100.00;101333.03;1737743;80;20988;-45
2022/11/11 08:45:09;;;;;;;22.65;13.13;;;;;;;8.34;100.00;101338.67;1738284;80;21521;-45
2022/11/11 08:47:54;;;;;;;19.62;11.73;;;;;;;8.36;100.00;101336.16;1734711;81;20961;-45
2022/11/11 08:50:41;;;;;;;17.67;12.03;;;;;;;8.38;100.00;101331.44;1739498;80;20993;-38
2022/11/11 08:53:26;;;;;;;21.33;12.30;;;;;;;8.38;100.00;101324.91;1741977;80;20997;-37
2022/11/11 08:56:12;;;;;;;18.35;12.05;;;;;;;8.37;100.00;101321.86;1746748;80;21683;-38
2022/11/11 08:58:58;;;;;;;18.00;10.75;;;;;;;8.34;100.00;101323.03;1737771;80;21678;-46
2022/11/11 09:01:43;;;;;;;19.37;13.05;;;;;;;8.34;100.00;101324.76;1734389;80;20965;-37
2022/11/11 09:04:34;;;;;;;18.35;11.83;;;;;;;8.35;100.00;101327.43;1747543;80;21032;-46
2022/11/11 09:07:19;;;;;;;15.23;10.20;;;;;;;8.40;100.00;101323.22;1732026;80;21039;-38
2022/11/11 09:10:05;;;;;;;13.85;10.05;;;;;;;8.49;100.00;101329.98;1729593;80;22035;-38
2022/11/11 09:12:57;;;;;;;13.10;8.88;;;;;;;8.59;100.00;101321.09;1734849;80;21070;-36
2022/11/11 09:15:42;;;;;;;11.50;9.50;;;;;;;8.67;100.00;101320.84;1735370;80;20992;-44
2022/11/11 09:18:30;;;;;;;12.53;8.73;;;;;;;8.72;100.00;101323.14;1734706;81;21626;-47
2022/11/11 09:21:14;;;;;;;13.30;8.88;;;;;;;8.74;100.00;101319.70;1732749;80;21842;-45
2022/11/11 09:24:06;;;;;;;12.63;9.13;;;;;;;8.80;100.00;101315.93;1723169;80;21183;-39
2022/11/11 09:26:51;;;;;;;11.05;8.38;;;;;;;8.88;100.00;101311.34;1733529;80;21503;-38
2022/11/11 09:29:42;;;;;;;11.97;8.08;;;;;;;8.96;100.00;101312.38;1735810;80;21056;-46
2022/11/11 09:32:40;;;;;;;10.00;7.97;;;;;;;9.04;100.00;101307.81;1731755;81;21346;-37
2022/11/11 09:35:37;;;;;;;13.30;8.08;;;;;;;9.12;100.00;101305.36;1730338;80;21075;-47
2022/11/11 09:38:34;;;;;;;11.83;8.53;;;;;;;9.16;100.00;101304.58;1737257;80;21154;-39
2022/11/11 09:50:27;;;;;;;9.25;7.58;;;;;;;9.06;100.00;101316.55;1738439;80;21048;-45
2022/11/11 09:53:48;;;;;;;13.22;8.75;;;;;;;8.95;100.00;101315.84;1729573;80;21063;-36
2022/11/11 09:56:33;;;;;;;12.07;7.75;;;;;;;8.84;100.00;101315.59;1735520;80;21593;-38
2022/11/11 09:59:26;;;;;;;17.10;8.20;;;;;;;8.80;100.00;101318.97;1739744;80;21032;-40
2022/11/11 10:03:03;;;;;;;10.93;7.45;;;;;;;8.74;100.00;101309.70;1719439;80;21413;-37
2022/11/11 10:06:22;;;;;;;14.63;8.73;;;;;;;8.69;100.00;101315.22;1699052;82;21771;-38
2022/11/11 10:09:29;;;;;;;9.85;7.62;;;;;;;8.66;100.00;101317.77;1686146;82;21188;-38
2022/11/11 10:12:17;;;;;;;15.75;9.63;;;;;;;8.65;100.00;101316.02;1689001;82;21608;-37
2022/11/11 10:15:08;;;;;;;13.00;8.73;;;;;;;8.69;100.00;101313.49;1700546;82;21167;-40
2022/11/11 10:18:30;;;;;;;13.32;9.40;;;;;;;8.71;100.00;101309.64;1679375;82;21026;-38
2022/11/11 10:21:48;;;;;;;15.85;10.50;;;;;;;8.74;100.00;101312.30;1612186;86;21118;-37
2022/11/11 10:24:38;;;;;;;15.13;10.50;;;;;;;8.78;100.00;101308.50;1609231;86;21143;-39
2022/11/11 10:27:23;;;;;;;18.52;11.10;;;;;;;8.82;100.00;101312.08;1609216;87;21730;-47
2022/11/11 10:30:31;;;;;;;17.17;10.68;;;;;;;8.84;100.00;101308.19;1604180;87;21020;-45
2022/11/11 10:33:22;;;;;;;19.73;12.80;;;;;;;8.82;100.00;101309.47;1597337;87;21513;-46
2022/11/11 10:36:13;;;;;;;19.55;12.50;;;;;;;8.79;100.00;101308.95;1598084;88;21544;-47
2022/11/11 10:39:04;;;;;;;18.37;12.23;;;;;;;8.77;100.00;101314.58;1599112;88;21065;-47
2022/11/11 10:41:50;;;;;;;18.67;12.07;;;;;;;8.74;100.00;101317.52;1619476;85;21547;-49
2022/11/11 10:44:37;;;;;;;18.00;12.15;;;;;;;8.73;100.00;101311.85;1633427;85;21127;-49
2022/11/11 10:47:38;;;;;;;29.87;14.73;;;;;;;8.73;100.00;101311.85;1644919;85;21042;-48
2022/11/11 10:50:30;;;;;;;19.90;13.70;;;;;;;8.75;100.00;101315.37;1643522;85;21062;-48
2022/11/11 10:53:29;;;;;;;19.17;12.58;;;;;;;8.77;100.00;101311.09;1674719;83;21063;-39
2022/11/11 10:56:29;;;;;;;22.75;12.28;;;;;;;8.77;100.00;101309.78;1738754;80;21603;-39
2022/11/11 10:59:40;;;;;;;22.48;11.35;;;;;;;8.79;100.00;101314.60;1734307;80;21088;-47
2022/11/11 11:02:29;;;;;;;18.90;12.03;;;;;;;8.80;100.00;101305.92;1731439;80;21360;-49
2022/11/11 11:05:43;;;;;;;18.17;12.60;;;;;;;8.84;100.00;101306.46;1736807;80;20993;-48
2022/11/11 11:08:36;;;;;;;24.95;12.28;;;;;;;8.86;100.00;101302.14;1743010;80;21114;-48
2022/11/11 11:11:57;;;;;;;17.48;12.07;;;;;;;8.90;100.00;101303.11;1717925;80;21573;-49
2022/11/11 11:14:44;;;;;;;19.35;12.03;;;;;;;8.94;100.00;101298.42;1733931;80;21614;-38
2022/11/11 11:17:41;;;;;;;21.40;14.13;;;;;;;9.01;100.00;101297.71;1737361;80;21569;-39
2022/11/11 11:20:26;;;;;;;15.95;11.90;;;;;;;9.05;100.00;101294.33;1749627;80;21390;-40
2022/11/11 11:23:11;;;;;;;19.73;12.82;;;;;;;9.14;100.00;101295.81;1736942;80;21575;-39
2022/11/11 11:25:56;;;;;;;17.87;11.70;;;;;;;9.20;100.00;101295.07;1740093;80;21056;-49
2022/11/11 11:29:00;;;;;;;18.80;12.20;;;;;;;9.24;100.00;101291.25;1739021;81;21075;-48
2022/11/11 11:31:48;;;;;;;21.33;13.30;;;;;;;9.30;100.00;101291.81;1746382;80;20980;-38
2022/11/11 11:34:49;;;;;;;18.92;12.78;;;;;;;9.33;100.00;101301.91;1735233;80;21573;-38
2022/11/11 11:37:48;;;;;;;19.95;12.70;;;;;;;9.36;100.00;101303.69;1733494;80;21055;-39
2022/11/11 11:40:46;;;;;;;18.57;12.45;;;;;;;9.39;100.00;101299.81;1736722;81;21910;-37
2022/11/11 11:43:41;;;;;;;17.80;12.28;;;;;;;9.44;100.00;101293.39;1733118;81;21540;-38
2022/11/11 11:46:38;;;;;;;18.05;11.97;;;;;;;9.49;100.00;101297.86;1736175;80;21068;-38
2022/11/11 11:49:37;;;;;;;17.17;12.30;;;;;;;9.52;100.00;101292.71;1730046;81;21000;-39
2022/11/11 11:52:56;;;;;;;18.05;11.63;;;;;;;9.58;100.00;101291.52;1740159;80;21047;-39
2022/11/11 11:55:45;;;;;;;17.52;11.70;;;;;;;9.65;100.00;101294.25;1730721;82;21079;-38
2022/11/11 11:59:15;;;;;;;14.25;11.05;;;;;;;9.70;100.00;101290.87;1738534;81;21098;-41
2022/11/11 12:02:21;;;;;;;15.68;11.03;;;;;;;9.73;100.00;101294.84;1749370;80;21035;-43
2022/11/11 12:05:28;;;;;;;16.48;11.25;;;;;;;9.74;100.00;101297.94;1731366;81;22040;-39
2022/11/11 12:08:30;;;;;;;16.15;11.18;;;;;;;9.74;100.00;101304.86;1739858;80;21608;-48
2022/11/11 12:11:43;;;;;;;14.87;10.48;;;;;;;9.71;100.00;101303.09;1728168;80;21085;-47
2022/11/11 12:15:19;;;;;;;16.48;11.00;;;;;;;9.66;100.00;101308.65;1735031;81;21134;-47
2022/11/11 12:18:41;;;;;;;17.35;10.95;;;;;;;9.60;100.00;101313.33;1738610;80;21051;-50
2022/11/11 12:21:43;;;;;;;16.65;11.53;;;;;;;9.53;100.00;101314.48;1741134;80;21693;-40
2022/11/11 12:24:48;;;;;;;17.65;11.55;;;;;;;9.49;100.00;101322.67;1741587;80;21587;-38
2022/11/11 12:27:43;;;;;;;17.02;11.80;;;;;;;9.44;100.00;101324.30;1664856;84;21407;-39
2022/11/11 12:30:28;;;;;;;16.30;11.85;;;;;;;9.39;100.00;101319.83;1736375;80;21949;-38
2022/11/11 12:33:36;;;;;;;21.52;13.10;;;;;;;9.36;100.00;101318.05;1730036;80;21111;-38
2022/11/11 12:36:45;;;;;;;17.30;11.93;;;;;;;9.37;100.00;101314.59;1736100;80;21064;-38
2022/11/11 12:39:55;;;;;;;20.40;13.35;;;;;;;9.42;100.00;101322.52;1731701;80;21634;-39
2022/11/11 12:42:53;;;;;;;17.75;12.45;;;;;;;9.46;100.00;101329.59;1720711;82;21065;-37
2022/11/11 12:45:50;;;;;;;18.85;13.35;;;;;;;9.47;100.00;101327.42;1737711;80;21547;-38
2022/11/11 12:49:05;;;;;;;22.37;15.70;;;;;;;9.49;100.00;101334.86;1681657;82;21184;-47
2022/11/11 12:52:19;;;;;;;20.35;14.13;;;;;;;9.48;100.00;101334.41;1680127;84;21028;-40
2022/11/11 12:55:31;;;;;;;23.80;15.28;;;;;;;9.48;100.00;101338.33;1667928;84;21873;-47
2022/11/11 12:58:38;;;;;;;18.95;13.08;;;;;;;9.44;100.00;101337.37;1682754;83;21088;-47
2022/11/11 13:01:37;;;;;;;17.70;12.35;;;;;;;9.43;100.00;101338.22;1677863;84;21055;-38
2022/11/11 13:04:41;;;;;;;18.25;13.05;;;;;;;9.45;100.00;101353.52;1686931;82;21656;-46
2022/11/11 13:07:52;;;;;;;23.25;15.08;;;;;;;9.43;100.00;101353.89;1684332;84;21081;-39
2022/11/11 13:11:13;;;;;;;20.45;14.13;;;;;;;9.42;100.00;101358.66;1700969;82;20967;-48
2022/11/11 13:14:38;;;;;;;25.60;15.75;;;;;;;9.39;100.00;101359.02;1701802;84;21011;-38
2022/11/11 13:17:23;;;;;;;20.27;14.63;;;;;;;9.34;100.00;101356.33;1693359;84;21475;-49
2022/11/11 13:20:42;;;;;;;23.25;15.83;;;;;;;9.34;100.00;101356.33;1690531;82;21037;-39
2022/11/11 13:23:27;;;;;;;20.45;13.83;;;;;;;9.35;100.00;101356.78;1672591;84;21046;-48
2022/11/11 13:26:32;;;;;;;27.07;17.48;;;;;;;9.35;100.00;101355.47;1722328;82;21009;-39
2022/11/11 13:29:58;;;;;;;25.70;15.18;;;;;;;9.35;100.00;101359.39;1738666;81;21107;-47
2022/11/11 13:32:50;;;;;;;25.72;15.93;;;;;;;9.36;100.00;101365.49;1724846;82;21060;-47
2022/11/11 13:35:49;;;;;;;22.55;13.83;;;;;;;9.34;100.00;101365.47;1741321;81;21016;-47
2022/11/11 13:38:47;;;;;;;27.30;17.15;;;;;;;9.34;100.00;101368.08;1739812;82;21604;-47
2022/11/11 13:41:36;;;;;;;98.87;45.30;;;;;;;9.33;100.00;101367.59;1742154;82;21031;-47
2022/11/11 13:44:31;;;;;;;61.10;30.72;;;;;;;9.35;100.00;101370.27;1740568;82;21036;-39
2022/11/11 13:47:38;;;;;;;37.10;21.40;;;;;;;9.35;100.00;101373.75;1741418;81;20976;-49
2022/11/11 13:50:37;;;;;;;27.52;16.97;;;;;;;9.35;100.00;101382.89;1741611;82;21579;-37
2022/11/11 13:53:32;;;;;;;25.90;16.35;;;;;;;9.32;100.00;101382.38;1738591;82;21005;-46
2022/11/11 13:56:25;;;;;;;49.20;28.83;;;;;;;9.31;100.00;101391.50;1740977;82;20993;-47
2022/11/11 13:59:27;;;;;;;;;;;;;;;9.28;100.00;101388.41;1743995;82;21101;-38
2022/11/11 14:02:19;;;;;;;88.27;46.53;;;;;;;9.26;100.00;101386.59;1742594;82;20101;-39
2022/11/11 14:05:13;;;;;;;81.72;42.55;;;;;;;9.21;100.00;101384.30;1742421;80;21704;-46
2022/11/11 14:07:59;;;;;;;39.63;22.98;;;;;;;9.20;100.00;101395.59;1744389;81;21080;-47
2022/11/11 14:10:53;;;;;;;37.30;22.22;;;;;;;9.18;100.00;101388.16;1740686;82;21049;-39
2022/11/11 14:13:39;;;;;;;56.28;31.25;;;;;;;9.18;100.00;101386.43;1743140;81;21037;-47
2022/11/11 14:16:40;;;;;;;35.80;21.80;;;;;;;9.17;100.00;101383.37;1741731;82;21114;-40
2022/11/11 14:19:28;;;;;;;32.90;19.02;;;;;;;9.20;100.00;101388.64;1715507;82;21065;-38
2022/11/11 14:22:29;;;;;;;30.50;19.37;;;;;;;9.27;100.00;101394.45;1703730;82;21072;-38
2022/11/11 14:25:25;;;;;;;28.38;18.27;;;;;;;9.32;100.00;101399.78;1736711;82;21055;-39
2022/11/11 14:28:30;;;;;;;26.25;18.17;;;;;;;9.37;100.00;101395.55;1733195;81;21084;-47
2022/11/11 14:31:21;;;;;;;38.02;18.87;;;;;;;9.42;100.00;101396.55;1720084;82;21003;-39
2022/11/11 14:34:23;;;;;;;30.27;18.10;;;;;;;9.46;100.00;101404.91;1741712;82;21056;-47
2022/11/11 14:37:28;;;;;;;31.95;18.55;;;;;;;9.48;100.00;101401.90;1773697;80;21036;-39
2022/11/11 14:40:26;;;;;;;41.18;25.08;;;;;;;9.52;100.00;101402.86;1741243;81;21005;-40
2022/11/11 14:43:39;;;;;;;44.50;27.32;;;;;;;9.56;100.00;101400.75;1759964;80;21055;-39
2022/11/11 14:46:24;;;;;;;27.35;17.70;;;;;;;9.59;100.00;101403.02;1745276;81;21058;-39
2022/11/11 14:49:08;;;;;;;29.95;19.32;;;;;;;9.55;100.00;101407.70;1744247;81;21045;-49
2022/11/11 14:51:58;;;;;;;32.95;18.50;;;;;;;9.49;100.00;101413.23;1740742;81;21110;-39
2022/11/11 14:55:17;;;;;;;39.27;23.40;;;;;;;9.42;100.00;101417.44;1743965;81;21077;-47
2022/11/11 14:58:13;;;;;;;38.53;24.40;;;;;;;9.33;100.00;101419.44;1741691;80;21036;-39
2022/11/11 15:01:10;;;;;;;37.15;24.00;;;;;;;9.30;100.00;101422.39;1738848;81;21109;-48
2022/11/11 15:03:54;;;;;;;35.17;21.40;;;;;;;9.28;100.00;101428.89;1756080;79;20984;-47
2022/11/11 15:06:58;;;;;;;34.90;21.37;;;;;;;9.25;100.00;101434.02;1780863;80;20981;-47
2022/11/11 15:10:22;;;;;;;39.30;24.50;;;;;;;9.21;100.00;101444.36;1780157;80;21609;-39
2022/11/11 15:13:23;;;;;;;30.12;18.80;;;;;;;9.17;100.00;101446.45;1717232;82;21087;-48
2022/11/11 15:16:33;;;;;;;35.55;20.32;;;;;;;9.17;100.00;101446.45;1717095;83;21033;-39
2022/11/11 15:19:53;;;;;;;28.60;19.40;;;;;;;9.16;100.00;101444.66;1714818;83;21075;-39
2022/11/11 15:23:13;;;;;;;30.17;19.45;;;;;;;9.16;100.00;101442.05;1715789;82;21563;-39
2022/11/11 15:26:21;;;;;;;32.80;19.77;;;;;;;9.14;100.00;101451.16;1715802;83;20999;-39
2022/11/11 15:29:22;;;;;;;34.58;20.75;;;;;;;9.15;100.00;101450.73;1710735;83;21110;-39
2022/11/11 15:32:34;;;;;;;44.05;27.55;;;;;;;9.17;100.00;101452.56;1714366;83;21638;-47
2022/11/11 15:35:33;;;;;;;40.23;26.62;;;;;;;9.19;100.00;101457.38;1712636;82;21433;-39
2022/11/11 15:38:18;;;;;;;37.65;25.35;;;;;;;9.22;100.00;101453.95;1714990;83;21079;-39
2022/11/11 15:41:03;;;;;;;31.77;22.90;;;;;;;9.25;100.00;101459.26;1714291;82;21719;-39
2022/11/11 15:43:49;;;;;;;32.00;22.50;;;;;;;9.27;100.00;101460.17;1716321;83;21212;-38
2022/11/11 15:46:37;;;;;;;30.37;21.35;;;;;;;9.31;100.00;101458.98;1716712;82;21033;-41
2022/11/11 15:49:41;;;;;;;36.25;21.10;;;;;;;9.32;100.00;101459.43;1717582;82;21061;-39
2022/11/11 15:52:34;;;;;;;30.27;21.37;;;;;;;9.34;100.00;101464.72;1723510;82;21135;-39
2022/11/11 15:55:24;;;;;;;36.97;23.40;;;;;;;9.34;100.00;101468.63;1731989;82;21053;-39
2022/11/11 15:58:31;;;;;;;39.33;23.70;;;;;;;9.36;100.00;101466.92;1730420;82;21791;-39
2022/11/11 16:01:16;;;;;;;34.48;23.80;;;;;;;9.39;100.00;101475.24;1726116;82;21065;-39
2022/11/11 16:04:00;;;;;;;37.15;25.00;;;;;;;9.42;100.00;101480.13;1734025;82;21073;-39
2022/11/11 16:06:46;;;;;;;35.65;24.75;;;;;;;9.44;100.00;101484.08;1717053;82;21467;-47
2022/11/11 16:09:32;;;;;;;41.48;27.95;;;;;;;9.46;100.00;101486.32;1726180;82;21068;-46
2022/11/11 16:12:29;;;;;;;38.15;25.12;;;;;;;9.46;100.00;101484.59;1726498;81;21029;-38
2022/11/11 16:15:22;;;;;;;38.67;25.48;;;;;;;9.47;100.00;101488.96;1681328;84;21059;-47
2022/11/11 16:18:19;;;;;;;42.05;27.15;;;;;;;9.51;100.00;101491.23;1690469;84;21048;-39
